createdAt,value
2023-05-09T00:00:38.084Z,44.32
2023-05-09T00:01:38.100Z,44.30
2023-05-09T00:02:38.277Z,44.30
2023-05-09T00:03:38.159Z,44.31
2023-05-09T00:04:38.340Z,44.28
2023-05-09T00:05:38.204Z,44.30
2023-05-09T00:06:38.224Z,44.30
2023-05-09T00:07:38.319Z,44.27
2023-05-09T00:08:38.318Z,44.26
2023-05-09T00:09:38.363Z,44.28
2023-05-09T00:10:38.403Z,44.27
2023-05-09T00:11:38.496Z,44.22
2023-05-09T00:12:38.475Z,44.22
2023-05-09T00:13:38.483Z,44.22
2023-05-09T00:14:39.151Z,44.23
2023-05-09T00:15:38.523Z,44.24
2023-05-09T00:16:38.598Z,44.24
2023-05-09T00:17:38.864Z,44.21
2023-05-09T00:18:38.649Z,44.19
2023-05-09T00:19:38.703Z,44.21
2023-05-09T00:20:38.711Z,44.23
2023-05-09T00:21:38.771Z,44.23
2023-05-09T00:22:38.800Z,44.23
2023-05-09T00:23:38.869Z,44.22
2023-05-09T00:24:38.877Z,44.21
2023-05-09T00:25:38.929Z,44.19
2023-05-09T00:26:38.941Z,44.20
2023-05-09T00:27:39.052Z,44.20
2023-05-09T00:28:38.992Z,44.22
2023-05-09T00:29:39.042Z,44.22
2023-05-09T00:30:39.096Z,44.21
2023-05-09T00:31:39.113Z,44.19
2023-05-09T00:32:39.192Z,44.19
2023-05-09T00:33:39.158Z,44.15
2023-05-09T00:34:39.184Z,44.14
2023-05-09T00:35:39.275Z,44.12
2023-05-09T00:36:39.368Z,44.12
2023-05-09T00:37:39.306Z,44.10
2023-05-09T00:38:39.366Z,44.09
2023-05-09T00:39:39.430Z,44.08
2023-05-09T00:40:39.416Z,44.10
2023-05-09T00:41:39.468Z,44.05
2023-05-09T00:42:39.508Z,44.05
2023-05-09T00:43:39.641Z,44.02
2023-05-09T00:44:39.583Z,44.03
2023-05-09T00:45:39.613Z,44.04
2023-05-09T00:46:39.647Z,44.04
2023-05-09T00:47:39.755Z,44.04
2023-05-09T00:48:39.697Z,44.01
2023-05-09T00:49:39.754Z,43.99
2023-05-09T00:50:39.775Z,44.00
2023-05-09T00:51:39.926Z,43.98
2023-05-09T00:52:39.925Z,43.98
2023-05-09T00:53:39.908Z,44.01
2023-05-09T00:54:39.967Z,43.98
2023-05-09T00:55:39.969Z,43.96
2023-05-09T00:56:39.994Z,43.96
2023-05-09T00:57:40.029Z,43.98
2023-05-09T00:58:40.083Z,43.96
2023-05-09T00:59:40.194Z,43.99
2023-05-09T01:00:40.140Z,44.01
2023-05-09T01:01:40.204Z,44.00
2023-05-09T01:02:40.274Z,43.99
2023-05-09T01:03:40.339Z,43.97
2023-05-09T01:04:40.267Z,43.99
2023-05-09T01:05:40.302Z,43.97
2023-05-09T01:06:40.321Z,43.95
2023-05-09T01:07:40.379Z,43.96
2023-05-09T01:08:40.428Z,43.96
2023-05-09T01:09:40.444Z,43.96
2023-05-09T01:10:40.468Z,43.97
2023-05-09T01:11:40.505Z,43.96
2023-05-09T01:12:40.593Z,43.99
2023-05-09T01:13:40.595Z,43.96
2023-05-09T01:14:40.620Z,43.99
2023-05-09T01:15:40.766Z,43.98
2023-05-09T01:16:40.649Z,43.98
2023-05-09T01:17:40.733Z,43.97
2023-05-09T01:18:40.717Z,43.96
2023-05-09T01:19:40.758Z,43.96
2023-05-09T01:20:40.804Z,43.96
2023-05-09T01:21:40.830Z,43.95
2023-05-09T01:22:40.863Z,44.02
2023-05-09T01:23:40.897Z,44.02
2023-05-09T01:24:40.971Z,43.99
2023-05-09T01:25:40.996Z,44.02
2023-05-09T01:26:41.019Z,44.04
2023-05-09T01:27:41.085Z,44.05
2023-05-09T01:28:41.112Z,44.05
2023-05-09T01:29:41.166Z,44.05
2023-05-09T01:30:41.187Z,44.05
2023-05-09T01:31:41.386Z,44.10
2023-05-09T01:32:41.309Z,44.06
2023-05-09T01:33:41.268Z,44.10
2023-05-09T01:34:41.336Z,44.07
2023-05-09T01:35:41.381Z,44.08
2023-05-09T01:36:41.413Z,44.09
2023-05-09T01:37:41.441Z,44.09
2023-05-09T01:38:41.479Z,44.11
2023-05-09T01:39:41.530Z,44.09
2023-05-09T01:40:41.537Z,44.08
2023-05-09T01:41:41.588Z,44.08
2023-05-09T01:42:41.623Z,44.07
2023-05-09T01:43:41.671Z,44.12
2023-05-09T01:44:41.699Z,44.12
2023-05-09T01:45:41.724Z,44.12
2023-05-09T01:46:41.831Z,44.11
2023-05-09T01:47:41.946Z,44.09
2023-05-09T01:48:41.856Z,44.11
2023-05-09T01:49:41.879Z,44.10
2023-05-09T01:50:41.948Z,44.09
2023-05-09T01:51:43.792Z,44.08
2023-05-09T01:52:41.996Z,44.10
2023-05-09T01:53:42.034Z,44.08
2023-05-09T01:54:42.056Z,44.07
2023-05-09T01:55:42.094Z,44.08
2023-05-09T01:56:42.103Z,44.08
2023-05-09T01:57:42.167Z,44.07
2023-05-09T01:58:42.191Z,44.08
2023-05-09T01:59:42.245Z,44.07
2023-05-09T02:00:42.277Z,44.08
2023-05-09T02:01:42.322Z,44.07
2023-05-09T02:02:42.474Z,44.09
2023-05-09T02:03:42.453Z,44.06
2023-05-09T02:04:42.451Z,44.06
2023-05-09T02:05:42.462Z,44.05
2023-05-09T02:06:42.490Z,44.03
2023-05-09T02:07:42.498Z,44.02
2023-05-09T02:08:42.581Z,44.04
2023-05-09T02:09:42.574Z,44.06
2023-05-09T02:10:42.625Z,44.06
2023-05-09T02:11:42.663Z,44.07
2023-05-09T02:12:42.664Z,44.03
2023-05-09T02:13:42.747Z,44.02
2023-05-09T02:14:42.768Z,44.02
2023-05-09T02:15:42.779Z,44.01
2023-05-09T02:16:42.893Z,44.00
2023-05-09T02:17:42.858Z,44.01
2023-05-09T02:18:42.908Z,43.98
2023-05-09T02:19:43.023Z,44.00
2023-05-09T02:20:42.972Z,44.00
2023-05-09T02:21:42.998Z,43.99
2023-05-09T02:22:43.063Z,43.99
2023-05-09T02:23:43.078Z,43.98
2023-05-09T02:24:43.093Z,43.99
2023-05-09T02:25:43.158Z,43.98
2023-05-09T02:26:43.164Z,44.00
2023-05-09T02:27:43.219Z,43.98
2023-05-09T02:28:43.248Z,43.99
2023-05-09T02:29:43.319Z,43.98
2023-05-09T02:30:43.354Z,43.94
2023-05-09T02:31:43.401Z,43.96
2023-05-09T02:32:43.475Z,43.95
2023-05-09T02:33:43.441Z,43.94
2023-05-09T02:34:43.472Z,43.93
2023-05-09T02:35:43.584Z,43.95
2023-05-09T02:36:43.587Z,43.96
2023-05-09T02:37:43.597Z,43.92
2023-05-09T02:38:43.620Z,43.92
2023-05-09T02:39:43.664Z,43.90
2023-05-09T02:40:43.694Z,43.91
2023-05-09T02:41:43.724Z,43.92
2023-05-09T02:42:44.127Z,43.88
2023-05-09T02:43:43.789Z,43.88
2023-05-09T02:44:43.800Z,43.88
2023-05-09T02:45:43.937Z,43.88
2023-05-09T02:46:43.904Z,43.86
2023-05-09T02:47:43.961Z,43.90
2023-05-09T02:48:44.006Z,43.88
2023-05-09T02:49:43.983Z,43.90
2023-05-09T02:50:44.021Z,43.89
2023-05-09T02:51:44.156Z,43.88
2023-05-09T02:52:44.138Z,43.91
2023-05-09T02:53:44.148Z,43.90
2023-05-09T02:54:44.193Z,43.87
2023-05-09T02:55:44.250Z,43.84
2023-05-09T02:56:44.286Z,43.86
2023-05-09T02:57:44.330Z,43.86
2023-05-09T02:58:44.372Z,43.87
2023-05-09T02:59:44.400Z,43.91
2023-05-09T03:00:44.439Z,43.90
2023-05-09T03:01:44.470Z,43.93
2023-05-09T03:02:44.659Z,43.93
2023-05-09T03:03:44.637Z,43.92
2023-05-09T03:04:44.558Z,43.88
2023-05-09T03:05:44.644Z,43.89
2023-05-09T03:06:44.656Z,43.87
2023-05-09T03:07:44.784Z,43.86
2023-05-09T03:08:44.708Z,43.89
2023-05-09T03:09:44.727Z,43.91
2023-05-09T03:10:44.788Z,43.91
2023-05-09T03:11:44.827Z,43.91
2023-05-09T03:12:44.870Z,43.87
2023-05-09T03:13:44.908Z,43.90
2023-05-09T03:14:44.901Z,43.89
2023-05-09T03:15:45.057Z,43.91
2023-05-09T03:16:44.976Z,43.91
2023-05-09T03:17:45.031Z,43.91
2023-05-09T03:18:45.049Z,43.90
2023-05-09T03:19:45.071Z,43.89
2023-05-09T03:20:45.161Z,43.91
2023-05-09T03:21:45.199Z,43.89
2023-05-09T03:22:45.205Z,43.93
2023-05-09T03:23:45.310Z,43.90
2023-05-09T03:24:45.278Z,43.91
2023-05-09T03:25:45.324Z,43.88
2023-05-09T03:26:45.374Z,43.92
2023-05-09T03:27:45.375Z,43.89
2023-05-09T03:28:45.407Z,43.89
2023-05-09T03:29:45.441Z,43.91
2023-05-09T03:30:45.497Z,43.90
2023-05-09T03:31:45.557Z,43.88
2023-05-09T03:32:45.579Z,43.90
2023-05-09T03:33:45.679Z,43.91
2023-05-09T03:34:45.664Z,43.91
2023-05-09T03:35:45.668Z,43.93
2023-05-09T03:36:45.698Z,43.90
2023-05-09T03:37:45.715Z,43.90
2023-05-09T03:38:45.790Z,43.84
2023-05-09T03:39:45.900Z,43.89
2023-05-09T03:40:45.839Z,43.84
2023-05-09T03:41:45.853Z,43.84
2023-05-09T03:42:45.908Z,43.87
2023-05-09T03:43:45.933Z,43.86
2023-05-09T03:44:45.992Z,43.87
2023-05-09T03:45:45.999Z,43.86
2023-05-09T03:46:46.093Z,43.86
2023-05-09T03:47:46.203Z,43.86
2023-05-09T03:48:46.123Z,43.87
2023-05-09T03:49:46.200Z,43.87
2023-05-09T03:50:46.187Z,43.88
2023-05-09T03:51:46.200Z,43.89
2023-05-09T03:52:46.356Z,43.91
2023-05-09T03:53:46.306Z,43.88
2023-05-09T03:54:46.333Z,43.90
2023-05-09T03:55:46.459Z,43.90
2023-05-09T03:56:46.423Z,43.91
2023-05-09T03:57:46.456Z,43.94
2023-05-09T03:58:46.503Z,43.91
2023-05-09T03:59:46.521Z,43.93
2023-05-09T04:00:46.566Z,43.93
2023-05-09T04:01:46.630Z,43.92
2023-05-09T04:02:46.684Z,43.92
2023-05-09T04:03:46.719Z,43.93
2023-05-09T04:04:46.673Z,43.92
2023-05-09T04:05:46.734Z,43.90
2023-05-09T04:06:46.759Z,43.89
2023-05-09T04:07:46.831Z,43.88
2023-05-09T04:08:46.844Z,43.89
2023-05-09T04:09:46.886Z,43.89
2023-05-09T04:10:46.943Z,43.89
2023-05-09T04:11:47.055Z,43.86
2023-05-09T04:12:47.045Z,43.84
2023-05-09T04:13:47.052Z,43.85
2023-05-09T04:14:49.018Z,43.85
2023-05-09T04:15:47.125Z,43.87
2023-05-09T04:16:47.195Z,43.88
2023-05-09T04:17:47.282Z,43.89
2023-05-09T04:18:47.230Z,43.88
2023-05-09T04:19:47.250Z,43.89
2023-05-09T04:20:47.307Z,43.89
2023-05-09T04:21:47.319Z,43.88
2023-05-09T04:22:47.350Z,43.89
2023-05-09T04:23:47.432Z,43.91
2023-05-09T04:24:47.426Z,43.91
2023-05-09T04:25:47.447Z,43.86
2023-05-09T04:26:47.507Z,43.90
2023-05-09T04:27:47.629Z,43.90
2023-05-09T04:28:47.586Z,43.91
2023-05-09T04:29:47.593Z,43.90
2023-05-09T04:30:47.677Z,43.91
2023-05-09T04:31:47.864Z,43.90
2023-05-09T04:32:47.755Z,43.90
2023-05-09T04:33:47.754Z,43.89
2023-05-09T04:34:47.774Z,43.90
2023-05-09T04:35:47.816Z,43.88
2023-05-09T04:36:47.842Z,43.92
2023-05-09T04:37:47.876Z,43.96
2023-05-09T04:38:47.929Z,43.93
2023-05-09T04:39:47.966Z,43.93
2023-05-09T04:40:47.989Z,43.94
2023-05-09T04:41:48.045Z,43.96
2023-05-09T04:42:48.061Z,43.91
2023-05-09T04:43:48.256Z,43.89
2023-05-09T04:44:48.151Z,43.93
2023-05-09T04:45:48.209Z,43.93
2023-05-09T04:46:48.216Z,43.94
2023-05-09T04:47:48.324Z,43.95
2023-05-09T04:48:48.304Z,43.99
2023-05-09T04:49:48.349Z,44.02
2023-05-09T04:50:48.366Z,44.04
2023-05-09T04:51:48.398Z,44.14
2023-05-09T04:52:48.471Z,44.18
2023-05-09T04:53:48.509Z,44.20
2023-05-09T04:54:48.605Z,44.30
2023-05-09T04:55:48.600Z,44.34
2023-05-09T04:56:50.629Z,44.48
2023-05-09T04:57:48.630Z,44.48
2023-05-09T04:58:48.612Z,44.59
2023-05-09T04:59:48.696Z,44.66
2023-05-09T05:02:15.119Z,44.95
2023-05-09T05:03:07.490Z,45.01
2023-05-09T05:04:07.450Z,44.95
2023-05-09T05:05:11.974Z,45.12
2023-05-09T05:06:08.449Z,45.26
2023-05-09T05:07:07.410Z,45.39
2023-05-09T05:08:07.468Z,45.52
2023-05-09T05:09:07.414Z,45.87
2023-05-09T05:10:07.410Z,46.04
2023-05-09T05:11:07.403Z,46.24
2023-05-09T05:12:09.151Z,46.38
2023-05-09T05:13:07.454Z,46.58
2023-05-09T05:14:07.402Z,46.43
2023-05-09T05:15:07.462Z,46.39
2023-05-09T05:16:07.411Z,46.48
2023-05-09T05:17:07.348Z,46.54
2023-05-09T05:18:07.405Z,46.83
2023-05-09T05:19:07.426Z,47.18
2023-05-09T05:20:07.420Z,47.21
2023-05-09T05:21:07.423Z,47.39
2023-05-09T05:22:07.453Z,47.49
2023-05-09T05:23:07.489Z,47.67
2023-05-09T05:24:07.711Z,47.69
2023-05-09T05:25:07.615Z,47.85
2023-05-09T05:26:07.655Z,47.84
2023-05-09T05:27:07.715Z,47.95
2023-05-09T05:28:07.834Z,48.04
2023-05-09T05:29:07.850Z,48.05
2023-05-09T05:30:07.824Z,48.16
2023-05-09T05:31:07.893Z,48.60
2023-05-09T05:32:08.553Z,48.44
2023-05-09T05:33:07.964Z,48.41
2023-05-09T05:34:07.930Z,48.66
2023-05-09T05:35:07.908Z,49.07
2023-05-09T05:36:07.885Z,49.41
2023-05-09T05:37:07.946Z,49.61
2023-05-09T05:38:07.970Z,49.73
2023-05-09T05:39:08.330Z,50.16
2023-05-09T05:40:07.977Z,50.01
2023-05-09T05:41:08.079Z,49.99
2023-05-09T05:42:08.207Z,50.04
2023-05-09T05:43:08.225Z,50.10
2023-05-09T05:44:08.237Z,50.09
2023-05-09T05:45:08.279Z,50.22
2023-05-09T05:47:34.833Z,49.62
2023-05-09T05:48:27.125Z,49.57
2023-05-09T05:49:27.191Z,49.51
2023-05-09T05:50:27.157Z,49.42
2023-05-09T05:51:27.101Z,49.07
2023-05-09T05:52:27.140Z,49.14
2023-05-09T05:53:27.113Z,48.84
2023-05-09T05:54:27.107Z,48.80
2023-05-09T05:55:27.113Z,48.88
2023-05-09T05:56:27.111Z,48.99
2023-05-09T05:57:27.186Z,49.12
2023-05-09T05:58:27.197Z,49.16
2023-05-09T05:59:27.207Z,49.15
2023-05-09T06:00:27.233Z,48.99
2023-05-09T06:01:27.315Z,49.01
2023-05-09T06:02:27.363Z,48.85
2023-05-09T06:03:27.496Z,48.60
2023-05-09T06:04:27.442Z,49.09
2023-05-09T06:05:27.446Z,49.28
2023-05-09T06:06:27.483Z,49.34
2023-05-09T06:07:27.896Z,49.28
2023-05-09T06:08:27.461Z,49.10
2023-05-09T06:09:27.531Z,48.98
2023-05-09T06:10:27.605Z,48.82
2023-05-09T06:11:27.621Z,48.48
2023-05-09T06:12:28.136Z,48.16
2023-05-09T06:13:27.652Z,47.74
2023-05-09T06:14:27.639Z,47.53
2023-05-09T06:15:27.640Z,47.31
2023-05-09T06:16:27.679Z,47.10
2023-05-09T06:17:27.679Z,46.95
2023-05-09T06:18:27.716Z,46.75
2023-05-09T06:19:27.858Z,46.49
2023-05-09T06:20:27.977Z,46.36
2023-05-09T06:21:27.828Z,46.30
2023-05-09T06:22:27.928Z,46.36
2023-05-09T06:23:27.953Z,46.40
2023-05-09T06:24:35.922Z,46.35
2023-05-09T06:25:29.057Z,46.33
2023-05-09T06:26:28.047Z,46.31
2023-05-09T06:27:28.013Z,46.25
2023-05-09T06:28:28.033Z,46.29
2023-05-09T06:29:28.003Z,46.27
2023-05-09T06:30:27.969Z,46.26
2023-05-09T06:31:27.992Z,46.22
2023-05-09T06:32:28.129Z,46.29
2023-05-09T06:33:28.086Z,46.23
2023-05-09T06:34:28.187Z,46.10
2023-05-09T06:35:28.279Z,46.03
2023-05-09T06:36:28.993Z,45.95
2023-05-09T06:37:28.393Z,46.10
2023-05-09T06:38:28.393Z,45.98
2023-05-09T06:39:28.428Z,45.96
2023-05-09T06:40:28.511Z,46.06
2023-05-09T06:41:28.555Z,45.97
2023-05-09T06:42:28.856Z,45.82
2023-05-09T06:43:28.984Z,45.72
2023-05-09T06:44:28.702Z,45.64
2023-05-09T06:45:28.850Z,45.71
2023-05-09T06:46:28.885Z,45.76
2023-05-09T06:47:28.902Z,46.01
2023-05-09T06:48:29.389Z,46.67
2023-05-09T06:49:29.014Z,46.81
2023-05-09T06:50:30.760Z,46.62
2023-05-09T06:51:29.226Z,46.29
2023-05-09T06:52:29.052Z,46.21
2023-05-09T06:53:29.388Z,46.19
2023-05-09T06:54:29.014Z,46.12
2023-05-09T06:55:28.988Z,46.07
2023-05-09T06:56:29.009Z,46.01
2023-05-09T06:57:29.024Z,45.98
2023-05-09T06:58:29.397Z,46.12
2023-05-09T06:59:28.972Z,46.15
2023-05-09T07:00:28.967Z,46.08
2023-05-09T07:01:29.004Z,46.06
2023-05-09T07:02:29.042Z,46.04
2023-05-09T07:03:28.957Z,45.95
2023-05-09T07:04:29.022Z,45.90
2023-05-09T07:05:28.966Z,45.87
2023-05-09T07:06:28.910Z,45.95
2023-05-09T07:07:29.032Z,45.95
2023-05-09T07:08:28.946Z,45.91
2023-05-09T07:09:28.929Z,45.75
2023-05-09T07:10:28.897Z,45.70
2023-05-09T07:11:28.912Z,45.88
2023-05-09T07:12:28.903Z,46.00
2023-05-09T07:13:28.930Z,46.07
2023-05-09T07:14:28.874Z,46.02
2023-05-09T07:15:37.246Z,46.06
2023-05-09T07:16:29.912Z,46.22
2023-05-09T07:17:28.934Z,46.16
2023-05-09T07:18:28.899Z,46.04
2023-05-09T07:19:28.863Z,45.92
2023-05-09T07:20:28.882Z,45.86
2023-05-09T07:21:28.822Z,46.07
2023-05-09T07:22:31.284Z,46.08
2023-05-09T07:23:28.903Z,45.91
2023-05-09T07:24:28.795Z,45.77
2023-05-09T07:25:28.787Z,45.76
2023-05-09T07:26:28.821Z,45.75
2023-05-09T07:27:28.818Z,45.74
2023-05-09T07:28:28.930Z,45.70
2023-05-09T07:29:28.760Z,45.67
2023-05-09T07:30:28.811Z,45.84
2023-05-09T07:31:28.760Z,46.70
2023-05-09T07:32:28.869Z,47.57
2023-05-09T07:33:28.910Z,47.16
2023-05-09T07:34:28.743Z,46.86
2023-05-09T07:35:28.737Z,46.78
2023-05-09T07:36:28.714Z,46.87
2023-05-09T07:37:28.712Z,47.08
2023-05-09T07:38:28.931Z,47.08
2023-05-09T07:39:28.820Z,47.13
2023-05-09T07:40:28.678Z,47.16
2023-05-09T07:41:28.669Z,47.23
2023-05-09T07:42:28.684Z,47.26
2023-05-09T07:43:28.889Z,47.15
2023-05-09T07:44:28.686Z,46.84
2023-05-09T07:45:28.748Z,46.54
2023-05-09T07:46:28.682Z,46.27
2023-05-09T07:47:28.696Z,46.16
2023-05-09T07:48:28.903Z,46.04
2023-05-09T07:49:28.605Z,46.06
2023-05-09T07:50:28.626Z,46.08
2023-05-09T07:51:28.616Z,46.10
2023-05-09T07:52:28.571Z,46.04
2023-05-09T07:53:28.649Z,46.03
2023-05-09T07:54:28.629Z,46.04
2023-05-09T07:55:28.671Z,46.07
2023-05-09T07:56:28.590Z,46.09
2023-05-09T07:57:28.539Z,46.08
2023-05-09T07:58:28.555Z,46.03
2023-05-09T07:59:28.530Z,45.91
2023-05-09T08:00:28.525Z,45.80
2023-05-09T08:01:28.543Z,45.71
2023-05-09T08:02:28.601Z,45.68
2023-05-09T08:03:28.590Z,45.63
2023-05-09T08:04:28.513Z,45.62
2023-05-09T08:05:28.473Z,45.53
2023-05-09T08:06:28.502Z,45.47
2023-05-09T08:07:28.504Z,45.41
2023-05-09T08:08:28.516Z,45.37
2023-05-09T08:09:28.923Z,45.37
2023-05-09T08:10:28.475Z,45.39
2023-05-09T08:11:28.607Z,45.50
2023-05-09T08:12:28.465Z,45.60
2023-05-09T08:13:28.442Z,45.54
2023-05-09T08:14:28.934Z,45.52
2023-05-09T08:15:28.442Z,45.58
2023-05-09T08:16:28.433Z,45.61
2023-05-09T08:17:28.543Z,45.65
2023-05-09T08:18:28.556Z,45.63
2023-05-09T08:19:28.919Z,45.61
2023-05-09T08:20:28.674Z,45.57
2023-05-09T08:21:28.733Z,45.55
2023-05-09T08:22:28.779Z,45.52
2023-05-09T08:23:28.843Z,45.56
2023-05-09T08:24:28.939Z,45.52
2023-05-09T08:25:28.919Z,45.54
2023-05-09T08:26:28.953Z,45.63
2023-05-09T08:27:29.823Z,45.64
2023-05-09T08:28:29.036Z,45.63
2023-05-09T08:29:29.088Z,45.70
2023-05-09T08:30:29.193Z,46.06
2023-05-09T08:31:29.420Z,46.63
2023-05-09T08:32:29.350Z,46.96
2023-05-09T08:33:29.343Z,46.88
2023-05-09T08:34:29.450Z,47.06
2023-05-09T08:35:29.473Z,47.87
2023-05-09T08:36:29.543Z,48.14
2023-05-09T08:37:29.527Z,47.40
2023-05-09T08:38:29.597Z,46.91
2023-05-09T08:39:29.932Z,46.31
2023-05-09T08:40:29.679Z,46.05
2023-05-09T08:41:29.809Z,45.77
2023-05-09T08:42:29.767Z,45.34
2023-05-09T08:43:29.928Z,44.94
2023-05-09T08:44:29.868Z,44.52
2023-05-09T08:45:29.909Z,44.58
2023-05-09T08:46:30.022Z,44.49
2023-05-09T08:47:30.027Z,44.24
2023-05-09T08:48:30.110Z,45.94
2023-05-09T08:49:30.572Z,47.53
2023-05-09T08:50:30.141Z,46.87
2023-05-09T08:51:30.114Z,46.84
2023-05-09T08:52:30.126Z,46.78
2023-05-09T08:53:30.212Z,46.74
2023-05-09T08:54:30.464Z,46.19
2023-05-09T08:55:30.320Z,45.59
2023-05-09T08:56:30.333Z,45.07
2023-05-09T08:57:30.388Z,44.95
2023-05-09T08:58:30.463Z,45.09
2023-05-09T08:59:30.486Z,44.82
2023-05-09T09:00:30.512Z,44.90
2023-05-09T09:01:30.587Z,45.95
2023-05-09T09:02:30.665Z,45.94
2023-05-09T09:03:30.651Z,45.95
2023-05-09T09:04:30.740Z,45.94
2023-05-09T09:06:30.747Z,44.94
2023-05-09T09:07:31.364Z,44.79
2023-05-09T09:08:30.718Z,44.73
2023-05-09T09:09:30.722Z,44.72
2023-05-09T09:10:30.744Z,44.66
2023-05-09T09:11:30.689Z,44.60
2023-05-09T09:12:31.421Z,44.54
2023-05-09T09:13:30.729Z,44.47
2023-05-09T09:14:30.998Z,44.71
2023-05-09T09:15:30.760Z,44.66
2023-05-09T09:16:30.676Z,44.40
2023-05-09T09:17:30.771Z,44.26
2023-05-09T09:18:30.706Z,44.07
2023-05-09T09:19:30.654Z,43.95
2023-05-09T09:20:30.965Z,44.69
2023-05-09T09:21:30.627Z,45.39
2023-05-09T09:22:30.665Z,46.33
2023-05-09T09:23:30.630Z,46.51
2023-05-09T09:24:30.625Z,46.69
2023-05-09T09:25:30.706Z,47.09
2023-05-09T09:26:30.594Z,46.34
2023-05-09T09:27:30.657Z,46.03
2023-05-09T09:28:30.608Z,45.49
2023-05-09T09:29:30.506Z,45.34
2023-05-09T09:30:30.973Z,45.69
2023-05-09T09:31:30.632Z,45.69
2023-05-09T09:32:30.569Z,46.21
2023-05-09T09:33:30.537Z,46.07
2023-05-09T09:34:30.548Z,45.80
2023-05-09T09:35:30.905Z,47.06
2023-05-09T09:36:30.577Z,47.27
2023-05-09T09:37:30.518Z,46.98
2023-05-09T09:38:30.590Z,46.67
2023-05-09T09:39:30.517Z,46.35
2023-05-09T09:40:31.098Z,47.06
2023-05-09T09:41:30.492Z,45.92
2023-05-09T09:42:30.488Z,45.24
2023-05-09T09:43:30.466Z,45.42
2023-05-09T09:44:30.449Z,46.84
2023-05-09T09:45:31.479Z,47.34
2023-05-09T09:46:30.541Z,46.97
2023-05-09T09:47:30.474Z,47.07
2023-05-09T09:48:30.480Z,46.54
2023-05-09T09:49:30.453Z,46.32
2023-05-09T09:50:30.464Z,45.84
2023-05-09T09:51:30.476Z,45.63
2023-05-09T09:52:30.504Z,45.21
2023-05-09T09:53:30.635Z,45.17
2023-05-09T09:54:30.605Z,45.05
2023-05-09T09:55:30.591Z,45.00
2023-05-09T09:56:30.551Z,45.10
2023-05-09T09:57:30.604Z,44.53
2023-05-09T09:58:30.626Z,44.22
2023-05-09T09:59:30.641Z,43.87
2023-05-09T10:00:30.767Z,43.57
2023-05-09T10:01:30.704Z,43.44
2023-05-09T10:02:30.686Z,43.20
2023-05-09T10:03:30.833Z,42.93
2023-05-09T10:04:30.661Z,42.84
2023-05-09T10:05:30.727Z,43.42
2023-05-09T10:06:30.700Z,43.49
2023-05-09T10:07:30.785Z,43.33
2023-05-09T10:08:30.794Z,43.35
2023-05-09T10:09:30.784Z,43.00
2023-05-09T10:10:30.809Z,42.85
2023-05-09T10:11:30.801Z,42.49
2023-05-09T10:12:30.806Z,42.35
2023-05-09T10:13:30.862Z,42.37
2023-05-09T10:14:34.335Z,42.52
2023-05-09T10:15:41.265Z,42.56
2023-05-09T10:16:42.658Z,42.33
2023-05-09T10:17:32.277Z,42.41
2023-05-09T10:18:31.353Z,42.28
2023-05-09T10:19:30.937Z,42.45
2023-05-09T10:20:30.814Z,42.39
2023-05-09T10:21:30.815Z,42.42
2023-05-09T10:22:30.817Z,42.12
2023-05-09T10:23:30.778Z,42.56
2023-05-09T10:24:30.787Z,42.46
2023-05-09T10:25:31.007Z,42.30
2023-05-09T10:26:30.812Z,42.23
2023-05-09T10:27:30.730Z,42.11
2023-05-09T10:28:30.753Z,41.87
2023-05-09T10:29:30.822Z,41.70
2023-05-09T10:30:31.475Z,41.60
2023-05-09T10:31:30.786Z,41.74
2023-05-09T10:32:30.779Z,41.59
2023-05-09T10:33:31.455Z,41.85
2023-05-09T10:34:30.812Z,41.79
2023-05-09T10:35:31.096Z,41.75
2023-05-09T10:36:30.713Z,41.71
2023-05-09T10:37:32.799Z,44.30
2023-05-09T10:38:30.933Z,43.53
2023-05-09T10:39:30.989Z,42.92
2023-05-09T10:40:31.505Z,42.36
2023-05-09T10:41:31.038Z,42.04
2023-05-09T10:42:31.043Z,42.56
2023-05-09T10:43:32.194Z,42.27
2023-05-09T10:44:31.219Z,41.88
2023-05-09T10:45:31.250Z,41.82
2023-05-09T10:46:31.325Z,41.73
2023-05-09T10:47:31.367Z,41.68
2023-05-09T10:48:31.359Z,42.41
2023-05-09T10:49:31.383Z,42.53
2023-05-09T10:50:31.403Z,42.12
2023-05-09T10:51:31.461Z,42.46
2023-05-09T10:52:31.413Z,42.39
2023-05-09T10:53:31.384Z,41.95
2023-05-09T10:54:31.386Z,41.93
2023-05-09T10:55:31.510Z,41.95
2023-05-09T10:56:31.402Z,41.71
2023-05-09T10:57:31.440Z,41.55
2023-05-09T10:58:31.381Z,41.95
2023-05-09T10:59:31.441Z,41.98
2023-05-09T11:00:31.427Z,42.03
2023-05-09T11:01:31.453Z,41.43
2023-05-09T11:02:31.431Z,40.93
2023-05-09T11:03:31.476Z,41.37
2023-05-09T11:04:31.418Z,40.86
2023-05-09T11:05:31.403Z,41.55
2023-05-09T11:06:31.480Z,42.87
2023-05-09T11:07:31.582Z,43.16
2023-05-09T11:08:31.433Z,41.98
2023-05-09T11:09:31.448Z,41.16
2023-05-09T11:10:31.454Z,41.50
2023-05-09T11:11:31.533Z,41.69
2023-05-09T11:12:31.464Z,42.17
2023-05-09T11:13:31.650Z,41.78
2023-05-09T11:14:31.481Z,41.79
2023-05-09T11:15:31.497Z,41.84
2023-05-09T11:16:31.525Z,41.97
2023-05-09T11:17:31.508Z,42.02
2023-05-09T11:18:31.486Z,41.92
2023-05-09T11:19:31.534Z,41.04
2023-05-09T11:20:31.529Z,41.54
2023-05-09T11:21:31.533Z,41.13
2023-05-09T11:22:31.605Z,41.02
2023-05-09T11:23:31.648Z,39.78
2023-05-09T11:24:31.562Z,39.75
2023-05-09T11:25:31.572Z,40.53
2023-05-09T11:26:32.043Z,40.56
2023-05-09T11:27:31.620Z,40.52
2023-05-09T11:28:31.684Z,40.38
2023-05-09T11:29:31.710Z,40.72
2023-05-09T11:30:31.800Z,40.71
2023-05-09T11:31:32.084Z,40.31
2023-05-09T11:32:31.780Z,40.50
2023-05-09T11:33:31.719Z,41.23
2023-05-09T11:34:31.684Z,40.78
2023-05-09T11:35:31.678Z,41.42
2023-05-09T11:36:32.057Z,41.54
2023-05-09T11:37:31.797Z,41.21
2023-05-09T11:38:31.871Z,40.79
2023-05-09T11:39:32.019Z,40.77
2023-05-09T11:40:32.036Z,40.73
2023-05-09T11:41:32.083Z,40.71
2023-05-09T11:42:32.163Z,40.65
2023-05-09T11:43:32.167Z,40.71
2023-05-09T11:44:32.222Z,40.47
2023-05-09T11:45:32.335Z,38.52
2023-05-09T11:46:32.531Z,38.73
2023-05-09T11:47:32.388Z,37.74
2023-05-09T11:48:32.436Z,37.42
2023-05-09T11:49:32.408Z,37.32
2023-05-09T11:50:32.424Z,38.60
2023-05-09T11:51:32.421Z,38.79
2023-05-09T11:52:32.480Z,38.11
2023-05-09T11:53:32.461Z,37.59
2023-05-09T11:54:32.434Z,38.46
2023-05-09T11:55:32.698Z,38.70
2023-05-09T11:56:32.457Z,38.69
2023-05-09T11:57:32.467Z,39.08
2023-05-09T11:58:32.422Z,38.69
2023-05-09T11:59:32.379Z,38.62
2023-05-09T12:00:32.422Z,38.86
2023-05-09T12:01:32.440Z,38.61
2023-05-09T12:02:32.477Z,38.53
2023-05-09T12:03:32.468Z,38.42
2023-05-09T12:04:32.493Z,39.82
2023-05-09T12:05:32.501Z,38.34
2023-05-09T12:06:32.519Z,38.60
2023-05-09T12:07:32.540Z,38.76
2023-05-09T12:08:32.488Z,38.95
2023-05-09T12:09:32.492Z,39.67
2023-05-09T12:10:32.529Z,39.57
2023-05-09T12:11:32.643Z,39.00
2023-05-09T12:12:32.554Z,39.26
2023-05-09T12:13:32.725Z,38.76
2023-05-09T12:14:32.576Z,38.97
2023-05-09T12:15:32.583Z,39.37
2023-05-09T12:16:32.735Z,39.80
2023-05-09T12:17:32.697Z,39.82
2023-05-09T12:18:32.675Z,40.88
2023-05-09T12:19:32.733Z,39.94
2023-05-09T12:20:32.737Z,39.64
2023-05-09T12:21:32.764Z,39.60
2023-05-09T12:22:32.721Z,39.61
2023-05-09T12:23:32.777Z,39.16
2023-05-09T12:24:32.798Z,38.66
2023-05-09T12:25:32.809Z,38.62
2023-05-09T12:26:32.888Z,38.82
2023-05-09T12:27:33.080Z,38.82
2023-05-09T12:28:32.996Z,38.91
2023-05-09T12:29:33.135Z,38.74
2023-05-09T12:30:33.139Z,39.00
2023-05-09T12:31:33.249Z,39.11
2023-05-09T12:32:33.277Z,39.62
2023-05-09T12:33:33.318Z,39.84
2023-05-09T12:34:33.430Z,39.86
2023-05-09T12:35:33.465Z,39.94
2023-05-09T12:36:33.559Z,38.74
2023-05-09T12:37:33.567Z,39.71
2023-05-09T12:38:33.552Z,40.18
2023-05-09T12:39:33.558Z,36.14
2023-05-09T12:40:33.569Z,34.52
2023-05-09T12:41:41.515Z,33.48
2023-05-09T12:42:34.576Z,34.91
2023-05-09T12:43:33.656Z,33.92
2023-05-09T12:44:33.529Z,33.53
2023-05-09T12:45:33.517Z,33.84
2023-05-09T12:46:34.146Z,33.83
2023-05-09T12:47:33.530Z,33.06
2023-05-09T12:48:33.511Z,33.54
2023-05-09T12:49:33.522Z,34.93
2023-05-09T12:50:33.478Z,34.25
2023-05-09T12:51:33.529Z,34.02
2023-05-09T12:52:33.505Z,32.60
2023-05-09T12:53:33.514Z,34.58
2023-05-09T12:54:33.490Z,35.62
2023-05-09T12:55:33.464Z,34.44
2023-05-09T12:56:33.462Z,34.28